Terminal Aerodrome Forecast
Issued by NWS

Home | Current Version | Previous Version | Text Only | Print | Product List | Glossary On
Versions: 1 2 3 4 5 6 7 8 9 10 11 12 13 14 15 16 17 18 19 20 21 22
000
FTUS43 KEAX 252336
TAFSTJ
TAF
KSTJ 252336Z 2600/2624 04008KT P6SM BKN035
     FM261000 07005KT 4SM BR SCT011 BKN030
     FM261500 10005KT P6SM SCT040 BKN130=

USA.gov is the U.S. government's official web portal to all federal, state and local government web resources and services.